Time;durP1;ratioP1;P1;durP2;ratioP2;P2;SDS_P1;SDS_P2;PMS_P1;PMS_P2;Temp;Humidity;BMP_temperature;BMP_pressure;BME280_temperature;BME280_humidity;BME280_pressure;Samples;Min_cycle;Max_cycle;Signal;HPM_P1;HPM_P2
2022/08/02 00:00:36;;;;;;;6.12;4.42;;;;;;;23.14;62.79;99800.87;1752506;82;21068;-66
2022/08/02 00:03:06;;;;;;;8.03;5.12;;;;;;;23.16;62.84;99804.77;1753090;82;21035;-65
2022/08/02 00:05:36;;;;;;;7.90;4.92;;;;;;;23.16;62.83;99795.81;1772098;81;21122;-66
2022/08/02 00:08:08;;;;;;;7.90;4.75;;;;;;;23.18;62.80;99801.11;1733511;82;21460;-66
2022/08/02 00:10:39;;;;;;;8.93;5.05;;;;;;;23.20;62.70;99800.25;1721275;82;21046;-65
2022/08/02 00:13:09;;;;;;;6.42;4.92;;;;;;;23.21;62.66;99794.36;1772118;81;21059;-65
2022/08/02 00:15:39;;;;;;;5.85;5.08;;;;;;;23.23;62.59;99795.47;1750608;82;21050;-66
2022/08/02 00:18:09;;;;;;;9.28;4.65;;;;;;;23.22;62.50;99784.85;1727516;83;21129;-65
2022/08/02 00:20:38;;;;;;;6.97;4.75;;;;;;;23.22;62.52;99787.64;1675051;86;21050;-66
2022/08/02 00:23:07;;;;;;;6.87;4.35;;;;;;;23.23;62.45;99788.48;1704754;84;21466;-65
2022/08/02 00:25:37;;;;;;;7.05;4.62;;;;;;;23.25;62.41;99787.62;1752078;81;21074;-66
2022/08/02 00:28:09;;;;;;;6.72;4.85;;;;;;;23.24;62.35;99789.58;1725095;83;20999;-66
2022/08/02 00:30:40;;;;;;;6.05;4.72;;;;;;;23.24;62.43;99790.14;1758332;81;20994;-65
2022/08/02 00:33:11;;;;;;;5.80;4.83;;;;;;;23.23;62.41;99792.11;1728522;83;21039;-65
2022/08/02 00:35:41;;;;;;;6.97;4.97;;;;;;;23.23;62.35;99791.27;1734228;82;21019;-65
2022/08/02 00:38:10;;;;;;;5.80;4.80;;;;;;;23.24;62.40;99788.75;1731253;83;21058;-65
2022/08/02 00:40:40;;;;;;;6.10;5.00;;;;;;;23.23;62.51;99791.27;1731488;83;21054;-65
2022/08/02 00:43:10;;;;;;;8.95;5.15;;;;;;;23.22;62.74;99797.43;1731083;83;21105;-64
2022/08/02 00:45:40;;;;;;;10.05;5.53;;;;;;;23.19;62.95;99792.99;1735718;82;21006;-66
2022/08/02 00:48:12;;;;;;;6.72;5.33;;;;;;;23.19;63.10;99787.41;1754642;81;21015;-66
2022/08/02 00:50:41;;;;;;;7.53;5.30;;;;;;;23.21;63.25;99792.13;1726268;83;20990;-66
2022/08/02 00:53:11;;;;;;;8.70;5.20;;;;;;;23.22;63.29;99793.80;1718379;83;21117;-65
2022/08/02 00:55:41;;;;;;;6.72;5.75;;;;;;;23.25;63.35;99791.81;1715760;83;21498;-65
2022/08/02 00:58:11;;;;;;;7.53;5.28;;;;;;;23.26;63.40;99792.08;1756512;82;21006;-67
2022/08/02 01:00:41;;;;;;;8.75;6.05;;;;;;;23.24;63.50;99791.54;1731231;83;21070;-65
2022/08/02 01:03:10;;;;;;;6.92;5.55;;;;;;;23.25;63.53;99791.81;1741342;82;21007;-65
2022/08/02 01:05:40;;;;;;;7.83;5.72;;;;;;;23.26;63.64;99789.28;1741483;82;20991;-65
2022/08/02 01:08:11;;;;;;;7.62;5.58;;;;;;;23.26;63.70;99800.47;1715860;82;21043;-66
2022/08/02 01:10:41;;;;;;;7.83;5.70;;;;;;;23.25;63.82;99801.03;1703225;84;21028;-65
2022/08/02 01:13:11;;;;;;;8.43;5.75;;;;;;;23.28;63.93;99798.20;1703188;84;21044;-66
2022/08/02 01:15:47;;;;;;;7.00;5.55;;;;;;;23.27;64.06;99795.14;1731826;82;21023;-65
2022/08/02 01:18:28;;;;;;;9.60;6.28;;;;;;;23.25;64.14;99791.25;1773253;80;21085;-65
2022/08/02 01:21:23;;;;;;;6.80;5.78;;;;;;;23.25;64.25;99796.00;1776483;81;21506;-65
2022/08/02 01:24:20;;;;;;;9.28;6.00;;;;;;;23.21;64.40;99797.16;1776553;81;21019;-65
2022/08/02 01:27:27;;;;;;;7.70;5.37;;;;;;;23.21;64.57;99797.16;1802696;79;21007;-65
2022/08/02 01:29:58;;;;;;;10.45;5.60;;;;;;;23.18;64.71;99791.33;1784229;79;21054;-65
2022/08/02 01:32:32;;;;;;;8.00;5.80;;;;;;;23.18;64.82;99794.13;1750543;82;21094;-66
2022/08/02 01:35:15;;;;;;;8.15;6.17;;;;;;;23.18;64.91;99789.37;1792179;79;21030;-66
2022/08/02 01:37:50;;;;;;;7.60;6.05;;;;;;;23.16;65.04;99783.80;1823495;79;20967;-65
2022/08/02 01:40:28;;;;;;;9.30;5.85;;;;;;;23.13;65.21;99784.39;1823388;79;21026;-65
2022/08/02 01:42:58;;;;;;;8.48;6.30;;;;;;;23.12;65.26;99786.92;1800855;78;21434;-65
2022/08/02 01:45:32;;;;;;;8.95;6.08;;;;;;;23.11;65.33;99788.88;1796347;79;21026;-65
2022/08/02 01:48:02;;;;;;;7.50;6.58;;;;;;;23.09;65.37;99786.38;1796151;80;21085;-65
2022/08/02 01:50:33;;;;;;;7.92;5.87;;;;;;;23.08;65.43;99779.13;1796285;80;21019;-64
2022/08/02 01:53:06;;;;;;;9.08;6.42;;;;;;;23.06;65.48;99779.98;1730719;83;21042;-65
2022/08/02 01:55:43;;;;;;;9.10;5.83;;;;;;;23.06;65.53;99779.98;1730415;83;21065;-65
2022/08/02 01:58:17;;;;;;;7.58;5.62;;;;;;;23.05;65.65;99776.09;1769539;79;21007;-65
2022/08/02 02:00:47;;;;;;;11.15;6.15;;;;;;;23.02;65.86;99780.87;1796096;80;21066;-66
2022/08/02 02:03:20;;;;;;;8.23;6.17;;;;;;;23.01;66.02;99780.61;1796084;80;21078;-66
2022/08/02 02:05:51;;;;;;;13.18;6.47;;;;;;;22.99;66.15;99772.52;1777080;79;21089;-65
2022/08/02 02:08:30;;;;;;;10.18;6.60;;;;;;;22.98;66.21;99775.05;1756560;81;21123;-64
2022/08/02 02:10:59;;;;;;;7.30;6.53;;;;;;;22.98;66.30;99768.62;1823592;79;21030;-65
2022/08/02 02:13:31;;;;;;;9.70;6.33;;;;;;;22.98;66.37;99771.42;1819569;79;21022;-65
2022/08/02 02:16:03;;;;;;;8.13;6.20;;;;;;;23.00;66.38;99767.77;1823865;79;21022;-65
2022/08/02 02:18:33;;;;;;;9.80;6.17;;;;;;;23.01;66.45;99761.88;1793403;79;21069;-66
2022/08/02 02:21:03;;;;;;;13.18;6.70;;;;;;;22.98;66.64;99761.08;1819921;79;21038;-67
2022/08/02 02:23:32;;;;;;;10.78;6.67;;;;;;;22.94;66.82;99764.19;1821678;79;21048;-65
2022/08/02 02:26:05;;;;;;;8.03;6.67;;;;;;;22.95;66.94;99765.02;1785975;80;21018;-66
2022/08/02 02:28:37;;;;;;;12.35;7.10;;;;;;;22.94;66.99;99758.60;1785950;80;21081;-65
2022/08/02 02:31:19;;;;;;;9.30;6.28;;;;;;;22.93;67.07;99762.52;1809444;79;21002;-64
2022/08/02 02:34:01;;;;;;;10.75;6.30;;;;;;;22.93;67.35;99764.48;1823216;79;21042;-65
2022/08/02 02:36:31;;;;;;;10.75;6.12;;;;;;;22.90;67.49;99763.11;1823239;79;21030;-65
2022/08/02 02:39:03;;;;;;;8.00;6.40;;;;;;;22.90;67.77;99760.32;1823318;79;21008;-65
2022/08/02 02:41:36;;;;;;;9.68;6.30;;;;;;;22.85;68.18;99762.33;1821643;79;21038;-66
2022/08/02 02:44:06;;;;;;;8.88;6.37;;;;;;;22.85;68.56;99757.58;1795661;78;21073;-65
2022/08/02 02:46:36;;;;;;;7.95;6.28;;;;;;;22.84;68.76;99755.08;1829117;78;21084;-66
2022/08/02 02:49:09;;;;;;;7.47;5.87;;;;;;;22.83;68.90;99759.83;1829248;78;21045;-65
2022/08/02 02:51:43;;;;;;;18.32;10.85;;;;;;;22.82;69.21;99760.95;1828997;78;21070;-65
2022/08/02 02:54:13;;;;;;;10.95;6.42;;;;;;;22.80;69.51;99756.23;1825567;78;20991;-65
2022/08/02 02:56:45;;;;;;;8.33;5.78;;;;;;;22.77;69.75;99755.39;1818454;79;20978;-65
2022/08/02 02:59:14;;;;;;;12.63;7.08;;;;;;;22.76;70.03;99755.95;1823209;79;21003;-65
2022/08/02 03:01:44;;;;;;;9.88;6.20;;;;;;;22.75;70.20;99753.42;1823178;79;21047;-65
2022/08/02 03:04:15;;;;;;;10.10;5.62;;;;;;;22.73;70.29;99755.67;1765600;79;21079;-65
2022/08/02 03:06:44;;;;;;;9.38;5.35;;;;;;;22.75;70.35;99760.41;1788604;79;21045;-67
2022/08/02 03:09:14;;;;;;;9.15;6.10;;;;;;;22.79;70.37;99762.91;1783767;79;21026;-66
2022/08/02 03:11:43;;;;;;;8.83;5.78;;;;;;;22.80;70.38;99767.94;1782949;80;21042;-66
2022/08/02 03:14:13;;;;;;;8.75;6.05;;;;;;;22.80;70.32;99768.80;1783103;80;21018;-66
2022/08/02 03:16:45;;;;;;;10.05;6.00;;;;;;;22.79;70.25;99769.89;1801011;79;21002;-65
2022/08/02 03:19:15;;;;;;;11.05;6.62;;;;;;;22.80;70.11;99768.80;1823165;78;21077;-67
2022/08/02 03:21:45;;;;;;;9.68;5.90;;;;;;;22.80;69.98;99768.80;1818657;79;21042;-67
2022/08/02 03:24:14;;;;;;;7.87;6.00;;;;;;;22.82;69.86;99767.11;1760795;81;21086;-66
2022/08/02 03:26:46;;;;;;;9.95;6.03;;;;;;;22.84;69.75;99771.27;1793625;80;21022;-65
2022/08/02 03:29:15;;;;;;;8.95;6.33;;;;;;;22.84;69.78;99771.27;1763648;80;21485;-65
2022/08/02 03:31:52;;;;;;;16.10;6.92;;;;;;;22.83;69.84;99771.00;1759465;81;21094;-65
2022/08/02 03:34:22;;;;;;;8.50;6.15;;;;;;;22.81;70.00;99770.47;1795999;80;20974;-66
2022/08/02 03:36:54;;;;;;;10.10;5.85;;;;;;;22.76;70.22;99776.07;1795929;80;21096;-66
2022/08/02 03:39:23;;;;;;;9.78;5.90;;;;;;;22.72;70.41;99773.00;1796163;80;21070;-65
2022/08/02 03:41:53;;;;;;;9.03;5.97;;;;;;;22.75;70.46;99768.78;1755098;81;21062;-65
2022/08/02 03:44:22;;;;;;;8.68;6.25;;;;;;;22.75;70.61;99768.78;1721960;83;21027;-66
2022/08/02 03:46:52;;;;;;;10.93;6.17;;;;;;;22.74;70.71;99766.55;1748263;82;20987;-66
2022/08/02 03:49:22;;;;;;;8.48;6.40;;;;;;;22.73;71.02;99766.84;1746458;81;21067;-65
2022/08/02 03:51:51;;;;;;;9.35;6.03;;;;;;;22.72;71.61;99764.62;1823208;79;21022;-65
2022/08/02 03:54:21;;;;;;;7.12;5.58;;;;;;;22.74;71.93;99760.13;1823247;79;21026;-67
2022/08/02 03:56:53;;;;;;;10.45;6.08;;;;;;;22.75;72.41;99762.63;1821255;79;21034;-66
2022/08/02 03:59:22;;;;;;;8.60;6.25;;;;;;;22.74;73.26;99760.13;1799954;78;21066;-66
2022/08/02 04:01:51;;;;;;;12.00;6.37;;;;;;;22.69;74.67;99764.37;1788320;79;21018;-63
2022/08/02 04:04:21;;;;;;;10.38;6.15;;;;;;;22.59;75.33;99758.88;1796830;79;21427;-63
2022/08/02 04:06:51;;;;;;;12.93;6.90;;;;;;;22.55;76.26;99757.80;1791449;79;21030;-63
2022/08/02 04:09:21;;;;;;;8.98;5.90;;;;;;;22.51;77.09;99762.30;1822725;79;21054;-63
2022/08/02 04:11:52;;;;;;;9.03;6.37;;;;;;;22.48;77.28;99758.70;1823343;79;21030;-62
2022/08/02 04:14:22;;;;;;;10.93;6.42;;;;;;;22.45;77.79;99759.55;1823223;79;21418;-64
2022/08/02 04:17:04;;;;;;;12.25;7.30;;;;;;;22.41;78.29;99764.05;1823398;79;21046;-63
2022/08/02 04:19:42;;;;;;;10.65;6.78;;;;;;;22.37;78.68;99762.13;1813200;79;21442;-64
2022/08/02 04:22:25;;;;;;;9.45;6.53;;;;;;;22.31;79.53;99762.73;1778937;80;21121;-64
2022/08/02 04:24:58;;;;;;;10.48;6.45;;;;;;;22.30;79.67;99768.05;1756438;82;21020;-64
2022/08/02 04:27:29;;;;;;;9.38;6.70;;;;;;;22.32;79.73;99783.94;1756491;82;21056;-64
2022/08/02 04:30:01;;;;;;;9.03;6.42;;;;;;;22.34;80.00;99780.30;1724191;82;21064;-65
2022/08/02 04:32:31;;;;;;;9.65;6.50;;;;;;;22.30;80.21;99784.80;1726939;83;21499;-65
2022/08/02 04:35:01;;;;;;;11.40;6.45;;;;;;;22.30;79.90;99786.75;1729768;83;21641;-63
2022/08/02 04:37:34;;;;;;;8.55;6.15;;;;;;;22.30;79.97;99782.00;1726428;83;21024;-64
2022/08/02 04:40:11;;;;;;;11.10;6.40;;;;;;;22.31;80.01;99784.23;1738507;82;21062;-64
2022/08/02 04:42:41;;;;;;;9.63;6.20;;;;;;;22.28;80.23;99784.25;1740571;82;21102;-64
2022/08/02 04:45:10;;;;;;;7.67;6.20;;;;;;;22.29;80.71;99790.11;1756096;81;21106;-65
2022/08/02 04:47:43;;;;;;;8.15;5.22;;;;;;;22.30;80.70;99800.70;1755316;81;21039;-64
2022/08/02 04:50:14;;;;;;;7.12;4.72;;;;;;;22.25;80.28;99812.73;1752664;82;21066;-64
2022/08/02 04:52:43;;;;;;;6.28;4.65;;;;;;;22.19;77.88;99811.10;1756136;81;21070;-64
2022/08/02 04:55:14;;;;;;;6.08;4.58;;;;;;;22.09;77.36;99806.95;1756179;82;21496;-63
2022/08/02 04:57:56;;;;;;;8.65;4.78;;;;;;;21.98;76.50;99815.08;1756446;82;21042;-66
2022/08/02 05:00:27;;;;;;;5.60;4.30;;;;;;;21.91;76.05;99820.13;1756190;82;21011;-65
2022/08/02 05:02:58;;;;;;;6.72;3.92;;;;;;;21.86;75.26;99820.16;1756179;82;21047;-65
2022/08/02 05:05:27;;;;;;;8.00;4.08;;;;;;;21.81;74.83;99816.83;1756121;82;21145;-66
2022/08/02 05:07:56;;;;;;;7.00;4.45;;;;;;;21.71;73.42;99817.72;1755395;82;21416;-65
2022/08/02 05:10:26;;;;;;;6.12;3.95;;;;;;;21.65;72.70;99818.86;1756416;82;21015;-65
2022/08/02 05:12:56;;;;;;;9.30;4.87;;;;;;;21.59;72.80;99817.20;1726073;82;21055;-64
2022/08/02 05:15:26;;;;;;;8.28;4.10;;;;;;;21.55;72.62;99820.29;1726603;82;21414;-63
2022/08/02 05:17:58;;;;;;;8.88;4.30;;;;;;;21.54;72.86;99818.62;1726477;83;21098;-63
2022/08/02 05:20:27;;;;;;;10.60;4.47;;;;;;;21.50;73.20;99818.35;1728171;82;21122;-64
2022/08/02 05:22:57;;;;;;;6.95;4.55;;;;;;;21.46;74.06;99815.02;1764116;81;21450;-64
2022/08/02 05:25:27;;;;;;;6.83;4.25;;;;;;;21.37;73.65;99815.30;1730395;81;21553;-64
2022/08/02 05:27:56;;;;;;;9.35;4.70;;;;;;;21.30;73.46;99811.97;1730225;83;21467;-65
2022/08/02 05:30:25;;;;;;;6.28;3.95;;;;;;;21.26;73.83;99816.45;1756257;81;21062;-63
2022/08/02 05:32:54;;;;;;;7.87;4.28;;;;;;;21.23;74.14;99807.26;1726608;82;21015;-63
2022/08/02 05:35:23;;;;;;;9.73;4.10;;;;;;;21.24;73.90;99811.71;1725722;83;21039;-64
2022/08/02 05:37:53;;;;;;;9.83;4.45;;;;;;;21.23;73.87;99822.58;1734611;81;21011;-63
2022/08/02 05:40:22;;;;;;;11.97;4.33;;;;;;;21.20;74.10;99825.34;1794924;79;21019;-63
2022/08/02 05:42:54;;;;;;;12.33;4.08;;;;;;;21.14;74.98;99823.69;1816377;79;21325;-63
2022/08/02 05:45:23;;;;;;;6.50;4.12;;;;;;;21.10;75.25;99826.20;1823217;79;21010;-63
2022/08/02 05:47:53;;;;;;;9.28;4.60;;;;;;;21.01;75.49;99832.06;1823363;79;21451;-62
2022/08/02 05:50:24;;;;;;;6.00;4.30;;;;;;;20.97;75.89;99837.08;1813378;79;21006;-63
2022/08/02 05:53:04;;;;;;;7.45;4.22;;;;;;;20.93;75.58;99836.80;1795895;80;21030;-62
2022/08/02 05:55:34;;;;;;;7.47;4.47;;;;;;;20.92;75.97;99840.70;1760783;80;21548;-62
2022/08/02 05:58:17;;;;;;;6.78;4.33;;;;;;;20.92;77.18;99842.66;1737725;80;21086;-64
2022/08/02 06:00:48;;;;;;;10.68;6.45;;;;;;;20.88;77.11;99842.38;1730062;82;21458;-66
2022/08/02 06:03:24;;;;;;;14.05;5.80;;;;;;;20.85;77.84;99837.37;1756380;82;21039;-63
2022/08/02 06:06:13;;;;;;;13.20;5.47;;;;;;;20.82;78.75;99837.92;1726047;82;21463;-62
2022/08/02 06:08:45;;;;;;;7.87;4.55;;;;;;;20.75;79.24;99834.00;1725883;83;21007;-63
2022/08/02 06:11:23;;;;;;;7.72;5.17;;;;;;;20.71;79.64;99833.44;1750530;82;21105;-63
2022/08/02 06:13:53;;;;;;;10.68;5.60;;;;;;;20.68;80.57;99845.13;1777426;79;21458;-64
2022/08/02 06:16:23;;;;;;;8.38;5.15;;;;;;;20.63;81.50;99844.58;1796016;80;21010;-64
2022/08/02 06:18:55;;;;;;;28.23;21.33;;;;;;;20.62;82.30;99840.67;1791364;79;21002;-66
2022/08/02 06:21:25;;;;;;;11.22;6.90;;;;;;;20.61;82.72;99832.05;1777061;79;21026;-63
2022/08/02 06:23:57;;;;;;;9.85;5.55;;;;;;;20.61;83.45;99838.45;1766470;81;21022;-63
2022/08/02 06:26:28;;;;;;;10.30;5.58;;;;;;;20.64;83.46;99825.92;1769292;81;21062;-64
2022/08/02 06:29:00;;;;;;;9.98;5.10;;;;;;;20.63;83.60;99835.39;1767792;81;20979;-64
2022/08/02 06:31:29;;;;;;;9.25;5.60;;;;;;;20.65;83.40;99822.02;1740704;81;21138;-64
2022/08/02 06:33:59;;;;;;;14.03;7.28;;;;;;;20.67;83.42;99827.59;1738716;81;20993;-64
2022/08/02 06:36:49;;;;;;;11.53;6.25;;;;;;;20.71;83.78;99823.14;1738528;82;21025;-63
2022/08/02 06:39:32;;;;;;;9.15;5.83;;;;;;;20.75;83.78;99815.90;1740242;81;21621;-65
2022/08/02 06:42:05;;;;;;;10.18;6.05;;;;;;;20.80;83.71;99813.67;1738541;81;21090;-65
2022/08/02 06:44:42;;;;;;;8.13;5.20;;;;;;;20.85;83.85;99810.36;1738286;82;21022;-65
2022/08/02 06:47:13;;;;;;;9.80;5.45;;;;;;;20.89;83.79;99812.02;1736959;82;21461;-65
2022/08/02 06:49:43;;;;;;;11.50;5.90;;;;;;;20.91;83.03;99812.58;1728465;83;21006;-65
2022/08/02 06:52:15;;;;;;;10.00;4.95;;;;;;;20.91;83.11;99815.92;1704627;84;21202;-67
2022/08/02 06:54:47;;;;;;;13.13;5.53;;;;;;;20.95;82.52;99819.81;1708759;84;21079;-66
2022/08/02 06:57:16;;;;;;;11.85;5.55;;;;;;;20.96;81.96;99816.75;1677657;85;21446;-65
2022/08/02 06:59:46;;;;;;;13.00;5.67;;;;;;;20.99;81.92;99821.76;1708567;84;21068;-64
2022/08/02 07:02:16;;;;;;;9.40;5.37;;;;;;;21.00;81.70;99817.86;1677473;85;21043;-65
2022/08/02 07:04:46;;;;;;;10.58;5.35;;;;;;;21.00;81.53;99822.03;1721572;82;21038;-65
2022/08/02 07:07:16;;;;;;;8.23;4.78;;;;;;;21.04;81.89;99827.88;1728458;82;21062;-64
2022/08/02 07:09:45;;;;;;;7.72;4.42;;;;;;;21.05;81.71;99819.24;1705409;84;21491;-65
2022/08/02 07:12:16;;;;;;;8.78;5.22;;;;;;;21.05;80.52;99817.02;1732778;83;21094;-65
2022/08/02 07:14:46;;;;;;;8.88;4.60;;;;;;;21.00;80.21;99814.23;1736954;82;21034;-66
2022/08/02 07:17:16;;;;;;;8.10;4.45;;;;;;;21.00;80.76;99814.23;1722189;83;21086;-65
2022/08/02 07:19:46;;;;;;;10.05;5.08;;;;;;;20.98;80.79;99821.48;1708572;84;21057;-64
2022/08/02 07:22:19;;;;;;;7.60;4.72;;;;;;;20.97;81.12;99825.94;1732901;82;21513;-65
2022/08/02 07:24:47;;;;;;;6.30;4.67;;;;;;;20.96;81.34;99827.89;1735098;83;21044;-66
2022/08/02 07:27:18;;;;;;;9.18;5.10;;;;;;;20.95;81.11;99829.00;1735021;83;21047;-64
2022/08/02 07:29:47;;;;;;;10.58;5.40;;;;;;;20.95;81.20;99829.00;1740686;80;21052;-65
2022/08/02 07:32:18;;;;;;;11.18;4.60;;;;;;;20.95;81.26;99833.73;1730063;82;20995;-66
2022/08/02 07:34:48;;;;;;;8.53;5.10;;;;;;;20.93;80.95;99839.59;1781521;79;21462;-62
2022/08/02 07:37:20;;;;;;;11.95;5.62;;;;;;;20.93;80.43;99835.97;1785541;80;21012;-62
2022/08/02 07:39:52;;;;;;;7.12;5.50;;;;;;;20.91;80.70;99841.82;1781440;80;21451;-66
2022/08/02 07:42:22;;;;;;;9.33;5.50;;;;;;;20.90;80.78;99847.11;1785667;80;21029;-64
2022/08/02 07:44:51;;;;;;;8.10;5.00;;;;;;;20.93;81.33;99845.16;1785606;80;21438;-63
2022/08/02 07:47:21;;;;;;;13.00;5.60;;;;;;;20.91;81.13;99846.55;1785508;80;21488;-65
2022/08/02 07:49:50;;;;;;;18.77;6.22;;;;;;;20.87;81.43;99846.28;1814838;79;21064;-65
2022/08/02 07:52:20;;;;;;;13.10;6.87;;;;;;;20.86;82.06;99844.61;1823372;79;20975;-63
2022/08/02 07:54:50;;;;;;;12.50;7.20;;;;;;;20.82;82.01;99846.28;1804732;79;21172;-63
2022/08/02 07:57:19;;;;;;;9.25;6.25;;;;;;;20.79;82.46;99848.20;1788433;78;21467;-66
2022/08/02 07:59:50;;;;;;;13.03;6.58;;;;;;;20.78;82.45;99847.92;1735257;82;21008;-66
2022/08/02 08:02:20;;;;;;;12.43;8.73;;;;;;;20.73;83.03;99862.67;1784002;80;21003;-66
2022/08/02 08:04:49;;;;;;;16.50;9.90;;;;;;;20.73;83.44;99859.05;1797504;79;21005;-65
2022/08/02 08:07:19;;;;;;;18.32;10.80;;;;;;;20.72;83.25;99861.56;1785831;79;21062;-65
2022/08/02 08:09:52;;;;;;;13.78;10.20;;;;;;;20.74;83.49;99869.08;1815179;79;21030;-67
2022/08/02 08:12:24;;;;;;;13.40;8.75;;;;;;;20.74;84.09;99874.09;1809124;78;21034;-66
2022/08/02 08:14:54;;;;;;;17.32;8.80;;;;;;;20.76;84.76;99877.98;1795768;80;21499;-66
2022/08/02 08:17:25;;;;;;;12.75;6.55;;;;;;;20.77;85.34;99879.66;1760280;81;22070;-66
2022/08/02 08:19:56;;;;;;;12.47;5.92;;;;;;;20.77;85.88;99886.63;1759665;80;21423;-65
2022/08/02 08:22:26;;;;;;;8.95;4.80;;;;;;;20.79;86.36;99896.37;1795597;80;22070;-65
2022/08/02 08:24:58;;;;;;;14.15;6.12;;;;;;;20.82;85.97;99886.10;1795558;79;20982;-67
2022/08/02 08:27:28;;;;;;;10.10;5.47;;;;;;;20.82;85.20;99885.27;1785467;80;21046;-66
2022/08/02 08:29:59;;;;;;;8.38;5.35;;;;;;;20.77;85.13;99882.45;1782384;79;21470;-65
2022/08/02 08:32:29;;;;;;;8.50;5.25;;;;;;;20.74;84.97;99878.27;1746633;82;21070;-65
2022/08/02 08:34:58;;;;;;;11.90;5.85;;;;;;;20.69;84.85;99881.05;1822728;79;21022;-66
2022/08/02 08:37:37;;;;;;;13.32;6.28;;;;;;;20.63;85.29;99876.59;1823226;79;21495;-65
2022/08/02 08:40:10;;;;;;;10.78;5.80;;;;;;;20.60;85.75;99872.13;1804116;79;21022;-67
2022/08/02 08:42:43;;;;;;;10.32;5.25;;;;;;;20.63;86.27;99877.14;1770279;80;21097;-65
2022/08/02 08:45:15;;;;;;;8.88;5.85;;;;;;;20.64;86.24;99875.47;1738280;81;21042;-65
2022/08/02 08:47:47;;;;;;;10.75;5.95;;;;;;;20.64;86.36;99871.30;1729985;83;21062;-66
2022/08/02 08:50:21;;;;;;;8.63;5.20;;;;;;;20.66;86.61;99871.02;1753031;81;21538;-67
2022/08/02 08:53:09;;;;;;;8.93;6.17;;;;;;;20.64;86.56;99874.08;1729936;83;21031;-66
2022/08/02 08:55:43;;;;;;;12.37;6.90;;;;;;;20.66;87.12;99873.80;1729985;83;21019;-67
2022/08/02 08:58:27;;;;;;;11.60;7.28;;;;;;;20.68;87.53;99873.81;1754740;82;21053;-67
2022/08/02 09:01:15;;;;;;;10.45;6.60;;;;;;;20.70;87.82;99876.31;1727168;83;21058;-74
2022/08/02 09:04:02;;;;;;;13.45;7.17;;;;;;;20.71;88.27;99876.59;1753930;81;21114;-67
2022/08/02 09:06:46;;;;;;;13.48;6.92;;;;;;;20.73;88.76;99882.16;1730606;83;21399;-67
2022/08/02 09:09:23;;;;;;;12.65;6.92;;;;;;;20.76;89.11;99883.00;1730248;81;21574;-65
2022/08/02 09:11:52;;;;;;;9.05;6.42;;;;;;;20.80;89.41;99884.67;1730218;83;21082;-64
2022/08/02 09:14:28;;;;;;;9.80;6.28;;;;;;;20.82;89.54;99883.88;1730348;82;21066;-66
2022/08/02 09:17:08;;;;;;;9.25;5.62;;;;;;;20.84;89.60;99892.78;1751996;82;21006;-67
2022/08/02 09:19:39;;;;;;;9.25;5.72;;;;;;;20.88;88.99;99891.11;1781571;80;21342;-66
2022/08/02 09:22:11;;;;;;;9.45;5.90;;;;;;;20.88;88.23;99895.30;1821977;79;21050;-66
2022/08/02 09:24:48;;;;;;;8.83;5.80;;;;;;;20.87;88.03;99892.23;1823211;79;21007;-67
2022/08/02 09:27:20;;;;;;;9.63;5.78;;;;;;;20.88;87.94;99899.47;1823320;79;21474;-67
2022/08/02 09:29:52;;;;;;;11.70;6.47;;;;;;;20.86;87.56;99894.73;1803870;79;21036;-66
2022/08/02 09:32:23;;;;;;;8.65;5.92;;;;;;;20.83;87.66;99885.54;1752527;80;21031;-66
2022/08/02 09:34:54;;;;;;;9.05;4.95;;;;;;;20.81;87.84;99898.91;1795137;80;21021;-64
2022/08/02 09:37:29;;;;;;;7.22;5.50;;;;;;;20.80;87.62;99899.98;1760009;80;21042;-67
2022/08/02 09:40:01;;;;;;;7.50;5.10;;;;;;;20.76;86.88;99903.88;1794498;80;21078;-67
2022/08/02 09:42:32;;;;;;;12.90;5.60;;;;;;;20.73;87.33;99894.69;1759989;80;21414;-65
2022/08/02 09:45:01;;;;;;;8.73;5.30;;;;;;;20.70;87.51;99899.98;1756935;80;21003;-66
2022/08/02 09:47:32;;;;;;;11.73;6.00;;;;;;;20.70;88.01;99896.64;1760196;80;21467;-66
2022/08/02 09:50:04;;;;;;;9.78;5.30;;;;;;;20.71;88.19;99885.78;1759537;81;21042;-71
2022/08/02 09:52:34;;;;;;;10.05;5.45;;;;;;;20.71;88.54;99890.52;1759796;80;21043;-68
2022/08/02 09:55:06;;;;;;;9.35;5.25;;;;;;;20.68;88.37;99896.08;1728504;81;20998;-67
2022/08/02 09:57:37;;;;;;;10.93;6.58;;;;;;;20.65;88.03;99897.19;1742889;80;21090;-66
2022/08/02 10:00:11;;;;;;;7.97;5.70;;;;;;;20.61;88.13;99898.30;1795826;80;21066;-68
2022/08/02 10:03:10;;;;;;;8.68;6.20;;;;;;;20.62;88.98;99897.19;1794217;80;21010;-67
2022/08/02 10:05:54;;;;;;;12.15;6.10;;;;;;;20.66;89.50;99891.91;1789951;79;21003;-68
2022/08/02 10:08:27;;;;;;;12.53;5.67;;;;;;;20.69;88.73;99894.97;1795234;80;21069;-68
2022/08/02 10:11:02;;;;;;;9.65;6.75;;;;;;;20.70;89.22;99895.25;1759379;80;21014;-67
2022/08/02 10:13:33;;;;;;;6.12;4.90;;;;;;;20.77;89.74;99896.36;1787440;80;21057;-67
2022/08/02 10:16:03;;;;;;;9.23;5.60;;;;;;;20.80;88.91;99897.20;1795449;80;21257;-68
2022/08/02 10:18:33;;;;;;;7.12;5.28;;;;;;;20.81;88.84;99902.53;1795317;80;21045;-63
2022/08/02 10:21:05;;;;;;;7.08;5.25;;;;;;;20.79;87.74;99903.89;1749467;81;21071;-65
2022/08/02 10:23:35;;;;;;;8.55;6.17;;;;;;;20.78;87.88;99899.43;1728080;83;21174;-64
2022/08/02 10:26:05;;;;;;;10.43;6.33;;;;;;;20.83;88.53;99903.64;1726932;83;21040;-63
2022/08/02 10:28:36;;;;;;;9.93;5.70;;;;;;;20.88;89.08;99900.86;1727085;83;21004;-65
2022/08/02 10:31:06;;;;;;;13.95;6.10;;;;;;;20.94;88.43;99903.09;1756070;82;21091;-65
2022/08/02 10:33:36;;;;;;;9.60;5.40;;;;;;;20.96;88.32;99893.34;1756153;81;21013;-63
2022/08/02 10:38:43;;;;;;;8.78;4.70;;;;;;;20.98;87.38;99895.84;1755623;81;21049;-65
2022/08/02 10:41:13;;;;;;;7.90;5.50;;;;;;;21.00;87.59;99900.58;1756242;81;21010;-63
2022/08/02 10:43:43;;;;;;;8.18;5.55;;;;;;;21.00;85.79;99905.59;1755697;82;21067;-65
2022/08/02 10:46:26;;;;;;;9.23;5.80;;;;;;;21.02;86.58;99894.17;1755600;82;21099;-63
2022/08/02 10:49:15;;;;;;;9.25;4.80;;;;;;;21.03;87.15;99898.63;1755923;82;21076;-64
2022/08/02 10:51:56;;;;;;;10.43;5.10;;;;;;;21.02;87.03;99896.41;1751342;81;21486;-63
2022/08/02 10:54:40;;;;;;;8.85;4.90;;;;;;;20.98;86.26;99900.02;1755952;82;21012;-65
2022/08/02 10:57:21;;;;;;;7.47;4.80;;;;;;;20.92;85.33;99906.71;1732792;82;21096;-64
2022/08/02 10:59:53;;;;;;;8.80;5.53;;;;;;;20.86;85.13;99909.49;1748933;82;21003;-65
2022/08/02 11:02:43;;;;;;;8.65;5.40;;;;;;;20.77;85.45;99904.72;1749574;82;21094;-63
2022/08/02 11:05:14;;;;;;;10.60;5.70;;;;;;;20.73;86.34;99904.44;1736505;82;21088;-63
2022/08/02 11:07:48;;;;;;;10.82;5.95;;;;;;;20.74;86.71;99913.62;1755742;82;21503;-63
2022/08/02 11:10:36;;;;;;;13.53;5.80;;;;;;;20.73;87.05;99910.56;1755704;82;21086;-65
2022/08/02 11:13:15;;;;;;;6.53;5.00;;;;;;;20.74;87.58;99910.28;1724078;83;21085;-63
2022/08/02 11:16:00;;;;;;;7.40;5.08;;;;;;;20.71;86.26;99909.45;1756420;82;21449;-62
2022/08/02 11:18:53;;;;;;;8.13;5.15;;;;;;;20.74;87.17;99913.62;1756008;82;21568;-62
2022/08/02 11:21:25;;;;;;;7.75;5.10;;;;;;;20.74;87.08;99913.62;1755902;82;21106;-60
2022/08/02 11:23:54;;;;;;;9.13;6.20;;;;;;;20.76;87.48;99912.23;1756020;82;21349;-60
2022/08/02 11:26:34;;;;;;;14.35;6.97;;;;;;;20.76;87.71;99911.41;1756123;82;21002;-59
2022/08/02 11:29:04;;;;;;;10.30;5.67;;;;;;;20.78;88.18;99920.31;1756058;82;21446;-60
2022/08/02 11:31:41;;;;;;;11.90;6.08;;;;;;;20.77;88.64;99915.86;1756027;82;21068;-60
2022/08/02 11:34:10;;;;;;;10.88;6.28;;;;;;;20.78;88.71;99918.36;1728969;82;21174;-60
2022/08/02 11:36:48;;;;;;;11.90;5.47;;;;;;;20.78;89.34;99923.09;1752186;82;21038;-60
2022/08/02 11:39:21;;;;;;;7.33;4.75;;;;;;;20.79;90.06;99925.61;1756058;82;21484;-60
2022/08/02 11:41:57;;;;;;;8.40;4.20;;;;;;;20.86;89.96;99917.84;1756030;82;21144;-60
2022/08/02 11:44:29;;;;;;;5.70;3.67;;;;;;;20.90;88.94;99927.88;1756257;82;21054;-60
2022/08/02 11:47:00;;;;;;;5.75;4.40;;;;;;;20.86;87.93;99916.45;1756020;82;21093;-61
2022/08/02 11:49:30;;;;;;;6.15;3.77;;;;;;;20.84;86.53;99924.25;1756017;82;20987;-59
2022/08/02 11:52:04;;;;;;;10.45;4.70;;;;;;;20.79;86.66;99916.42;1756070;81;21458;-63
2022/08/02 11:54:36;;;;;;;8.08;3.70;;;;;;;20.79;86.37;99912.24;1756377;82;21030;-61
2022/08/02 11:57:18;;;;;;;5.70;4.25;;;;;;;20.78;86.18;99910.02;1755885;82;20987;-61
2022/08/02 11:59:50;;;;;;;5.85;3.17;;;;;;;20.78;84.99;99910.56;1754232;81;21190;-62